Huvudsida
METAR-TAF:

METAR-TAF

Flygplatser :

Utti Airport

Uttis, Finland

latitud: 60-54N, longitud: 026-56E, höjd: 100 m

Aktuellt väderrapport

Denna rapport gjordes för 33 minuter sedan, klockan 12:20 UTC
Vind 14 kt från syd, varierande mellan syd/sydost och sydväst
Temperatur 25°C
Fuktighet 47%
Tryck 1014 hPa
Sikt 10 km eller mer
Få moln på en höjd av 4500 ft
Brutna moln på en höjd av 9200 ft

METAR: EFUT 181220Z AUTO 19014KT 160V220 9999 FEW045 BKN092 25/13 Q1014

Tid: 15:53 (12:53 UTC)


TAF: saknas

Aktuella väderrapporter och prognoser från 4000 flygplatser (METAR- och TAF-rapporter).

De tillgängliga stationerna syns som gula och röda prickar på kartan.

För musen över prickarna för att se namnen på stationerna.

Klicka sedan för att få väderrapporter och prognoser.

För att ändra kartan: Klicka på de gröna knapparna med ett svart kors på för att zooma in; den gröna knappen med ett streck på för att zooma ut; eller på de gröna pilarna för angränsande kartor.


METAR-TAF: